sensor_id;sensor_type;location;lat;lon;timestamp;P1;durP1;ratioP1;P2;durP2;ratioP2
12451;SDS011;72521;48.924;12.204;2023-09-30T00:04:56;18.50;;;9.10;;
12451;SDS011;72521;48.924;12.204;2023-09-30T00:10:02;16.60;;;8.13;;
12451;SDS011;72521;48.924;12.204;2023-09-30T00:15:07;18.10;;;8.70;;
12451;SDS011;72521;48.924;12.204;2023-09-30T00:20:13;20.02;;;8.90;;
12451;SDS011;72521;48.924;12.204;2023-09-30T00:25:19;19.98;;;9.52;;
12451;SDS011;72521;48.924;12.204;2023-09-30T00:30:23;20.90;;;9.90;;
12451;SDS011;72521;48.924;12.204;2023-09-30T00:35:28;18.35;;;8.75;;
12451;SDS011;72521;48.924;12.204;2023-09-30T00:40:36;20.10;;;9.15;;
12451;SDS011;72521;48.924;12.204;2023-09-30T00:45:41;18.20;;;8.70;;
12451;SDS011;72521;48.924;12.204;2023-09-30T00:50:46;17.50;;;8.20;;
12451;SDS011;72521;48.924;12.204;2023-09-30T00:55:52;16.60;;;8.07;;
12451;SDS011;72521;48.924;12.204;2023-09-30T01:00:58;16.38;;;7.35;;
12451;SDS011;72521;48.924;12.204;2023-09-30T01:06:03;15.43;;;6.63;;
12451;SDS011;72521;48.924;12.204;2023-09-30T01:11:10;17.23;;;7.50;;
12451;SDS011;72521;48.924;12.204;2023-09-30T01:16:17;15.95;;;6.65;;
12451;SDS011;72521;48.924;12.204;2023-09-30T01:21:21;17.83;;;7.55;;
12451;SDS011;72521;48.924;12.204;2023-09-30T01:26:28;15.93;;;6.40;;
12451;SDS011;72521;48.924;12.204;2023-09-30T01:31:33;14.98;;;7.03;;
12451;SDS011;72521;48.924;12.204;2023-09-30T01:36:38;14.30;;;6.10;;
12451;SDS011;72521;48.924;12.204;2023-09-30T01:41:43;13.43;;;5.57;;
12451;SDS011;72521;48.924;12.204;2023-09-30T01:46:48;15.85;;;6.90;;
12451;SDS011;72521;48.924;12.204;2023-09-30T01:51:52;15.15;;;6.47;;
12451;SDS011;72521;48.924;12.204;2023-09-30T01:56:57;12.93;;;6.65;;
12451;SDS011;72521;48.924;12.204;2023-09-30T02:02:01;16.15;;;6.45;;
12451;SDS011;72521;48.924;12.204;2023-09-30T02:07:05;16.27;;;7.30;;
12451;SDS011;72521;48.924;12.204;2023-09-30T02:12:10;16.02;;;7.18;;
12451;SDS011;72521;48.924;12.204;2023-09-30T02:17:14;15.20;;;7.15;;
12451;SDS011;72521;48.924;12.204;2023-09-30T02:22:18;16.75;;;6.65;;
12451;SDS011;72521;48.924;12.204;2023-09-30T02:27:24;16.52;;;7.15;;
12451;SDS011;72521;48.924;12.204;2023-09-30T02:32:28;17.95;;;7.70;;
12451;SDS011;72521;48.924;12.204;2023-09-30T02:37:32;16.02;;;7.78;;
12451;SDS011;72521;48.924;12.204;2023-09-30T02:42:39;18.08;;;7.57;;
12451;SDS011;72521;48.924;12.204;2023-09-30T02:47:44;20.77;;;8.73;;
12451;SDS011;72521;48.924;12.204;2023-09-30T02:52:49;22.33;;;9.25;;
12451;SDS011;72521;48.924;12.204;2023-09-30T02:57:55;20.77;;;8.48;;
12451;SDS011;72521;48.924;12.204;2023-09-30T03:03:00;18.13;;;8.70;;
12451;SDS011;72521;48.924;12.204;2023-09-30T03:08:05;22.02;;;8.70;;
12451;SDS011;72521;48.924;12.204;2023-09-30T03:13:11;17.67;;;8.43;;
12451;SDS011;72521;48.924;12.204;2023-09-30T03:18:15;18.02;;;7.90;;
12451;SDS011;72521;48.924;12.204;2023-09-30T03:23:24;19.38;;;8.02;;
12451;SDS011;72521;48.924;12.204;2023-09-30T03:28:32;17.90;;;8.40;;
12451;SDS011;72521;48.924;12.204;2023-09-30T03:33:36;21.13;;;8.38;;
12451;SDS011;72521;48.924;12.204;2023-09-30T03:38:41;18.23;;;7.57;;
12451;SDS011;72521;48.924;12.204;2023-09-30T03:43:47;18.38;;;8.25;;
12451;SDS011;72521;48.924;12.204;2023-09-30T03:48:52;20.88;;;8.90;;
12451;SDS011;72521;48.924;12.204;2023-09-30T03:53:57;16.65;;;8.02;;
12451;SDS011;72521;48.924;12.204;2023-09-30T03:59:06;17.27;;;7.20;;
12451;SDS011;72521;48.924;12.204;2023-09-30T04:04:10;17.02;;;7.40;;
12451;SDS011;72521;48.924;12.204;2023-09-30T04:09:15;15.93;;;7.90;;
12451;SDS011;72521;48.924;12.204;2023-09-30T04:14:21;19.77;;;7.63;;
12451;SDS011;72521;48.924;12.204;2023-09-30T04:19:26;15.55;;;7.07;;
12451;SDS011;72521;48.924;12.204;2023-09-30T04:24:32;15.10;;;6.93;;
12451;SDS011;72521;48.924;12.204;2023-09-30T04:29:37;14.90;;;6.43;;
12451;SDS011;72521;48.924;12.204;2023-09-30T04:34:43;14.98;;;6.30;;
12451;SDS011;72521;48.924;12.204;2023-09-30T04:39:48;15.10;;;6.25;;
12451;SDS011;72521;48.924;12.204;2023-09-30T04:44:54;12.45;;;6.40;;
12451;SDS011;72521;48.924;12.204;2023-09-30T04:49:58;12.55;;;5.88;;
12451;SDS011;72521;48.924;12.204;2023-09-30T04:55:06;11.43;;;5.53;;
12451;SDS011;72521;48.924;12.204;2023-09-30T05:00:13;12.52;;;5.72;;
12451;SDS011;72521;48.924;12.204;2023-09-30T05:05:19;17.35;;;7.38;;
12451;SDS011;72521;48.924;12.204;2023-09-30T05:10:24;12.23;;;5.43;;
12451;SDS011;72521;48.924;12.204;2023-09-30T05:15:30;12.25;;;5.85;;
12451;SDS011;72521;48.924;12.204;2023-09-30T05:20:37;15.05;;;5.90;;
12451;SDS011;72521;48.924;12.204;2023-09-30T05:25:41;12.25;;;6.05;;
12451;SDS011;72521;48.924;12.204;2023-09-30T05:30:46;12.85;;;5.65;;
12451;SDS011;72521;48.924;12.204;2023-09-30T05:35:52;12.40;;;5.72;;
12451;SDS011;72521;48.924;12.204;2023-09-30T05:40:57;11.25;;;5.57;;
12451;SDS011;72521;48.924;12.204;2023-09-30T05:46:04;13.20;;;5.78;;
12451;SDS011;72521;48.924;12.204;2023-09-30T05:51:10;17.13;;;6.20;;
12451;SDS011;72521;48.924;12.204;2023-09-30T05:56:16;11.50;;;5.47;;
12451;SDS011;72521;48.924;12.204;2023-09-30T06:01:21;16.33;;;6.05;;
12451;SDS011;72521;48.924;12.204;2023-09-30T06:06:25;10.15;;;5.10;;
12451;SDS011;72521;48.924;12.204;2023-09-30T06:11:31;13.32;;;6.05;;
12451;SDS011;72521;48.924;12.204;2023-09-30T06:16:37;15.00;;;6.07;;
12451;SDS011;72521;48.924;12.204;2023-09-30T06:21:41;10.32;;;5.57;;
12451;SDS011;72521;48.924;12.204;2023-09-30T06:26:45;10.95;;;5.32;;
12451;SDS011;72521;48.924;12.204;2023-09-30T06:31:51;12.02;;;5.55;;
12451;SDS011;72521;48.924;12.204;2023-09-30T06:36:55;12.15;;;5.35;;
12451;SDS011;72521;48.924;12.204;2023-09-30T06:41:59;12.15;;;5.50;;
12451;SDS011;72521;48.924;12.204;2023-09-30T06:47:05;6.28;;;3.00;;
12451;SDS011;72521;48.924;12.204;2023-09-30T06:52:14;10.55;;;4.80;;
12451;SDS011;72521;48.924;12.204;2023-09-30T06:57:18;11.73;;;5.13;;
12451;SDS011;72521;48.924;12.204;2023-09-30T07:02:24;9.13;;;4.53;;
12451;SDS011;72521;48.924;12.204;2023-09-30T07:07:28;11.63;;;5.72;;
12451;SDS011;72521;48.924;12.204;2023-09-30T07:12:32;11.07;;;5.00;;
12451;SDS011;72521;48.924;12.204;2023-09-30T07:17:39;10.65;;;5.13;;
12451;SDS011;72521;48.924;12.204;2023-09-30T07:22:46;7.10;;;3.60;;
12451;SDS011;72521;48.924;12.204;2023-09-30T07:28:07;7.85;;;3.00;;
12451;SDS011;72521;48.924;12.204;2023-09-30T07:33:15;9.07;;;3.92;;
12451;SDS011;72521;48.924;12.204;2023-09-30T07:38:19;6.15;;;2.75;;
12451;SDS011;72521;48.924;12.204;2023-09-30T07:43:24;5.00;;;2.00;;
12451;SDS011;72521;48.924;12.204;2023-09-30T07:48:29;5.82;;;2.85;;
12451;SDS011;72521;48.924;12.204;2023-09-30T07:53:34;7.03;;;2.30;;
12451;SDS011;72521;48.924;12.204;2023-09-30T07:58:38;4.32;;;1.98;;
12451;SDS011;72521;48.924;12.204;2023-09-30T08:03:44;4.38;;;2.25;;
12451;SDS011;72521;48.924;12.204;2023-09-30T08:08:49;3.35;;;1.75;;
12451;SDS011;72521;48.924;12.204;2023-09-30T08:13:53;3.08;;;1.30;;
12451;SDS011;72521;48.924;12.204;2023-09-30T08:18:58;2.65;;;1.60;;
12451;SDS011;72521;48.924;12.204;2023-09-30T08:24:03;2.65;;;1.58;;
12451;SDS011;72521;48.924;12.204;2023-09-30T08:29:08;2.50;;;1.50;;
12451;SDS011;72521;48.924;12.204;2023-09-30T08:34:16;2.25;;;0.80;;
12451;SDS011;72521;48.924;12.204;2023-09-30T08:39:22;1.35;;;0.60;;
12451;SDS011;72521;48.924;12.204;2023-09-30T08:44:28;1.75;;;0.60;;
12451;SDS011;72521;48.924;12.204;2023-09-30T08:49:35;1.17;;;0.50;;
12451;SDS011;72521;48.924;12.204;2023-09-30T08:54:44;2.35;;;1.27;;
12451;SDS011;72521;48.924;12.204;2023-09-30T08:59:48;0.80;;;0.52;;
12451;SDS011;72521;48.924;12.204;2023-09-30T09:04:54;0.90;;;0.50;;
12451;SDS011;72521;48.924;12.204;2023-09-30T09:10:05;0.57;;;0.43;;
12451;SDS011;72521;48.924;12.204;2023-09-30T09:15:20;0.93;;;0.50;;
12451;SDS011;72521;48.924;12.204;2023-09-30T09:20:28;0.52;;;0.40;;
12451;SDS011;72521;48.924;12.204;2023-09-30T09:25:33;0.60;;;0.30;;
12451;SDS011;72521;48.924;12.204;2023-09-30T09:30:41;0.50;;;0.40;;
12451;SDS011;72521;48.924;12.204;2023-09-30T09:35:47;0.63;;;0.40;;
12451;SDS011;72521;48.924;12.204;2023-09-30T09:40:51;1.13;;;0.40;;
12451;SDS011;72521;48.924;12.204;2023-09-30T09:46:03;0.70;;;0.30;;
12451;SDS011;72521;48.924;12.204;2023-09-30T09:51:12;0.77;;;0.30;;
12451;SDS011;72521;48.924;12.204;2023-09-30T09:56:17;0.45;;;0.30;;
12451;SDS011;72521;48.924;12.204;2023-09-30T10:01:23;1.58;;;0.28;;
12451;SDS011;72521;48.924;12.204;2023-09-30T10:06:31;0.52;;;0.20;;
12451;SDS011;72521;48.924;12.204;2023-09-30T10:11:40;0.75;;;0.20;;
12451;SDS011;72521;48.924;12.204;2023-09-30T10:16:48;0.88;;;0.20;;
12451;SDS011;72521;48.924;12.204;2023-09-30T10:27:31;0.98;;;0.28;;
12451;SDS011;72521;48.924;12.204;2023-09-30T10:38:39;0.35;;;0.30;;
12451;SDS011;72521;48.924;12.204;2023-09-30T10:43:44;0.80;;;0.40;;
12451;SDS011;72521;48.924;12.204;2023-09-30T10:48:49;0.20;;;0.10;;
12451;SDS011;72521;48.924;12.204;2023-09-30T10:53:55;1.17;;;0.70;;
12451;SDS011;72521;48.924;12.204;2023-09-30T10:59:02;0.50;;;0.40;;
12451;SDS011;72521;48.924;12.204;2023-09-30T11:04:06;0.95;;;0.32;;
12451;SDS011;72521;48.924;12.204;2023-09-30T11:09:16;1.08;;;0.75;;
12451;SDS011;72521;48.924;12.204;2023-09-30T11:14:23;0.60;;;0.47;;
12451;SDS011;72521;48.924;12.204;2023-09-30T11:19:34;1.15;;;0.50;;
12451;SDS011;72521;48.924;12.204;2023-09-30T11:24:41;0.22;;;0.20;;
12451;SDS011;72521;48.924;12.204;2023-09-30T11:29:48;0.50;;;0.45;;
12451;SDS011;72521;48.924;12.204;2023-09-30T11:34:54;0.73;;;0.55;;
12451;SDS011;72521;48.924;12.204;2023-09-30T11:40:09;1.25;;;0.63;;
12451;SDS011;72521;48.924;12.204;2023-09-30T11:45:19;2.50;;;1.20;;
12451;SDS011;72521;48.924;12.204;2023-09-30T11:50:25;2.33;;;1.17;;
12451;SDS011;72521;48.924;12.204;2023-09-30T11:55:31;2.03;;;1.17;;
12451;SDS011;72521;48.924;12.204;2023-09-30T12:00:35;3.38;;;2.30;;
12451;SDS011;72521;48.924;12.204;2023-09-30T12:05:44;2.65;;;1.30;;
12451;SDS011;72521;48.924;12.204;2023-09-30T12:10:50;2.72;;;1.30;;
12451;SDS011;72521;48.924;12.204;2023-09-30T12:15:54;3.70;;;1.80;;
12451;SDS011;72521;48.924;12.204;2023-09-30T12:20:59;2.90;;;1.85;;
12451;SDS011;72521;48.924;12.204;2023-09-30T12:26:06;3.42;;;1.60;;
12451;SDS011;72521;48.924;12.204;2023-09-30T12:31:16;2.67;;;1.85;;
12451;SDS011;72521;48.924;12.204;2023-09-30T12:36:22;2.65;;;1.73;;
12451;SDS011;72521;48.924;12.204;2023-09-30T12:41:28;3.03;;;1.75;;
12451;SDS011;72521;48.924;12.204;2023-09-30T12:46:35;3.55;;;1.70;;
12451;SDS011;72521;48.924;12.204;2023-09-30T12:51:42;3.28;;;2.03;;
12451;SDS011;72521;48.924;12.204;2023-09-30T12:56:48;3.53;;;2.17;;
12451;SDS011;72521;48.924;12.204;2023-09-30T13:01:53;4.30;;;2.17;;
12451;SDS011;72521;48.924;12.204;2023-09-30T13:06:58;3.67;;;1.50;;
12451;SDS011;72521;48.924;12.204;2023-09-30T13:12:04;3.65;;;2.10;;
12451;SDS011;72521;48.924;12.204;2023-09-30T13:17:09;4.45;;;2.10;;
12451;SDS011;72521;48.924;12.204;2023-09-30T13:22:16;3.67;;;2.60;;
12451;SDS011;72521;48.924;12.204;2023-09-30T13:27:21;3.08;;;2.00;;
12451;SDS011;72521;48.924;12.204;2023-09-30T13:32:25;3.08;;;2.30;;
12451;SDS011;72521;48.924;12.204;2023-09-30T13:37:30;3.97;;;2.33;;
12451;SDS011;72521;48.924;12.204;2023-09-30T13:42:36;6.28;;;2.80;;
12451;SDS011;72521;48.924;12.204;2023-09-30T13:47:41;4.38;;;2.45;;
12451;SDS011;72521;48.924;12.204;2023-09-30T13:52:46;7.35;;;2.58;;
12451;SDS011;72521;48.924;12.204;2023-09-30T13:57:51;4.63;;;2.65;;
12451;SDS011;72521;48.924;12.204;2023-09-30T14:02:56;5.07;;;2.65;;
12451;SDS011;72521;48.924;12.204;2023-09-30T14:08:03;4.10;;;2.50;;
12451;SDS011;72521;48.924;12.204;2023-09-30T14:13:11;5.32;;;2.83;;
12451;SDS011;72521;48.924;12.204;2023-09-30T14:18:18;5.57;;;2.80;;
12451;SDS011;72521;48.924;12.204;2023-09-30T14:23:23;4.00;;;2.30;;
12451;SDS011;72521;48.924;12.204;2023-09-30T14:28:29;5.28;;;3.05;;
12451;SDS011;72521;48.924;12.204;2023-09-30T14:33:33;4.40;;;2.83;;
12451;SDS011;72521;48.924;12.204;2023-09-30T14:38:38;5.93;;;2.65;;
12451;SDS011;72521;48.924;12.204;2023-09-30T14:43:44;4.30;;;2.53;;
12451;SDS011;72521;48.924;12.204;2023-09-30T14:48:49;4.18;;;2.80;;
12451;SDS011;72521;48.924;12.204;2023-09-30T14:53:54;5.28;;;2.67;;
12451;SDS011;72521;48.924;12.204;2023-09-30T14:59:00;8.07;;;3.55;;
12451;SDS011;72521;48.924;12.204;2023-09-30T15:04:06;5.95;;;3.38;;
12451;SDS011;72521;48.924;12.204;2023-09-30T15:09:11;5.07;;;2.83;;
12451;SDS011;72521;48.924;12.204;2023-09-30T15:14:17;7.40;;;3.08;;
12451;SDS011;72521;48.924;12.204;2023-09-30T15:19:22;7.03;;;3.17;;
12451;SDS011;72521;48.924;12.204;2023-09-30T15:24:26;6.18;;;3.83;;
12451;SDS011;72521;48.924;12.204;2023-09-30T15:29:33;6.78;;;3.72;;
12451;SDS011;72521;48.924;12.204;2023-09-30T15:34:37;6.93;;;3.72;;
12451;SDS011;72521;48.924;12.204;2023-09-30T15:39:42;5.80;;;3.58;;
12451;SDS011;72521;48.924;12.204;2023-09-30T15:44:50;6.00;;;3.55;;
12451;SDS011;72521;48.924;12.204;2023-09-30T15:49:57;7.78;;;4.38;;
12451;SDS011;72521;48.924;12.204;2023-09-30T15:55:02;8.43;;;4.60;;
12451;SDS011;72521;48.924;12.204;2023-09-30T16:00:09;7.88;;;3.60;;
12451;SDS011;72521;48.924;12.204;2023-09-30T16:05:14;6.78;;;3.78;;
12451;SDS011;72521;48.924;12.204;2023-09-30T16:10:19;7.20;;;4.03;;
12451;SDS011;72521;48.924;12.204;2023-09-30T16:15:24;10.02;;;4.28;;
12451;SDS011;72521;48.924;12.204;2023-09-30T16:20:29;8.13;;;5.25;;
12451;SDS011;72521;48.924;12.204;2023-09-30T16:25:34;9.63;;;6.65;;
12451;SDS011;72521;48.924;12.204;2023-09-30T16:30:39;26.70;;;17.77;;
12451;SDS011;72521;48.924;12.204;2023-09-30T16:35:46;23.58;;;16.00;;
12451;SDS011;72521;48.924;12.204;2023-09-30T16:40:53;11.52;;;7.20;;
12451;SDS011;72521;48.924;12.204;2023-09-30T16:46:00;12.02;;;7.75;;
12451;SDS011;72521;48.924;12.204;2023-09-30T16:51:07;14.27;;;8.75;;
12451;SDS011;72521;48.924;12.204;2023-09-30T16:56:13;14.50;;;8.68;;
12451;SDS011;72521;48.924;12.204;2023-09-30T17:01:19;11.82;;;8.27;;
12451;SDS011;72521;48.924;12.204;2023-09-30T17:06:24;11.55;;;6.07;;
12451;SDS011;72521;48.924;12.204;2023-09-30T17:11:28;9.48;;;5.57;;
12451;SDS011;72521;48.924;12.204;2023-09-30T17:16:34;10.13;;;6.45;;
12451;SDS011;72521;48.924;12.204;2023-09-30T17:21:38;20.08;;;12.82;;
12451;SDS011;72521;48.924;12.204;2023-09-30T17:26:42;11.40;;;9.73;;
12451;SDS011;72521;48.924;12.204;2023-09-30T17:31:49;9.20;;;5.65;;
12451;SDS011;72521;48.924;12.204;2023-09-30T17:36:53;12.30;;;6.40;;
12451;SDS011;72521;48.924;12.204;2023-09-30T17:41:58;13.05;;;9.07;;
12451;SDS011;72521;48.924;12.204;2023-09-30T17:47:03;18.10;;;12.88;;
12451;SDS011;72521;48.924;12.204;2023-09-30T17:52:08;13.80;;;9.90;;
12451;SDS011;72521;48.924;12.204;2023-09-30T17:57:12;13.15;;;9.73;;
12451;SDS011;72521;48.924;12.204;2023-09-30T18:02:18;15.85;;;10.32;;
12451;SDS011;72521;48.924;12.204;2023-09-30T18:07:22;13.05;;;7.68;;
12451;SDS011;72521;48.924;12.204;2023-09-30T18:12:27;19.05;;;12.70;;
12451;SDS011;72521;48.924;12.204;2023-09-30T18:17:32;12.27;;;6.60;;
12451;SDS011;72521;48.924;12.204;2023-09-30T18:22:37;12.80;;;9.25;;
12451;SDS011;72521;48.924;12.204;2023-09-30T18:27:41;11.27;;;7.05;;
12451;SDS011;72521;48.924;12.204;2023-09-30T18:32:47;10.57;;;5.90;;
12451;SDS011;72521;48.924;12.204;2023-09-30T18:37:51;13.80;;;6.60;;
12451;SDS011;72521;48.924;12.204;2023-09-30T18:42:55;14.07;;;7.15;;
12451;SDS011;72521;48.924;12.204;2023-09-30T18:48:01;9.10;;;5.63;;
12451;SDS011;72521;48.924;12.204;2023-09-30T18:53:06;10.75;;;5.28;;
12451;SDS011;72521;48.924;12.204;2023-09-30T18:58:11;10.20;;;5.47;;
12451;SDS011;72521;48.924;12.204;2023-09-30T19:03:24;9.02;;;5.85;;
12451;SDS011;72521;48.924;12.204;2023-09-30T19:08:29;7.75;;;4.35;;
12451;SDS011;72521;48.924;12.204;2023-09-30T19:13:34;12.50;;;4.80;;
12451;SDS011;72521;48.924;12.204;2023-09-30T19:18:43;9.40;;;5.13;;
12451;SDS011;72521;48.924;12.204;2023-09-30T19:23:49;9.85;;;5.03;;
12451;SDS011;72521;48.924;12.204;2023-09-30T19:28:54;12.35;;;5.65;;
12451;SDS011;72521;48.924;12.204;2023-09-30T19:34:05;9.23;;;5.55;;
12451;SDS011;72521;48.924;12.204;2023-09-30T19:39:15;9.98;;;5.20;;
12451;SDS011;72521;48.924;12.204;2023-09-30T19:44:20;9.13;;;5.00;;
12451;SDS011;72521;48.924;12.204;2023-09-30T19:49:27;7.72;;;5.45;;
12451;SDS011;72521;48.924;12.204;2023-09-30T19:54:34;12.13;;;5.43;;
12451;SDS011;72521;48.924;12.204;2023-09-30T19:59:39;6.80;;;4.55;;
12451;SDS011;72521;48.924;12.204;2023-09-30T20:04:46;6.57;;;4.70;;
12451;SDS011;72521;48.924;12.204;2023-09-30T20:09:51;9.23;;;5.15;;
12451;SDS011;72521;48.924;12.204;2023-09-30T20:14:56;9.88;;;5.40;;
12451;SDS011;72521;48.924;12.204;2023-09-30T20:20:02;10.07;;;5.70;;
12451;SDS011;72521;48.924;12.204;2023-09-30T20:25:07;10.52;;;5.95;;
12451;SDS011;72521;48.924;12.204;2023-09-30T20:30:13;11.25;;;8.80;;
12451;SDS011;72521;48.924;12.204;2023-09-30T20:35:20;19.08;;;13.10;;
12451;SDS011;72521;48.924;12.204;2023-09-30T20:40:27;16.38;;;12.93;;
12451;SDS011;72521;48.924;12.204;2023-09-30T20:45:33;17.42;;;11.73;;
12451;SDS011;72521;48.924;12.204;2023-09-30T20:50:39;13.57;;;8.73;;
12451;SDS011;72521;48.924;12.204;2023-09-30T20:55:44;11.60;;;7.38;;
12451;SDS011;72521;48.924;12.204;2023-09-30T21:00:49;11.60;;;6.57;;
12451;SDS011;72521;48.924;12.204;2023-09-30T21:05:55;9.77;;;5.93;;
12451;SDS011;72521;48.924;12.204;2023-09-30T21:11:05;9.38;;;7.00;;
12451;SDS011;72521;48.924;12.204;2023-09-30T21:16:10;10.15;;;6.10;;
12451;SDS011;72521;48.924;12.204;2023-09-30T21:21:16;9.98;;;6.25;;
12451;SDS011;72521;48.924;12.204;2023-09-30T21:26:21;10.52;;;6.10;;
12451;SDS011;72521;48.924;12.204;2023-09-30T21:31:25;12.60;;;7.28;;
12451;SDS011;72521;48.924;12.204;2023-09-30T21:36:34;14.43;;;8.45;;
12451;SDS011;72521;48.924;12.204;2023-09-30T21:41:38;12.95;;;7.10;;
12451;SDS011;72521;48.924;12.204;2023-09-30T21:46:43;11.07;;;6.45;;
12451;SDS011;72521;48.924;12.204;2023-09-30T21:51:49;12.48;;;6.55;;
12451;SDS011;72521;48.924;12.204;2023-09-30T21:56:53;12.00;;;6.22;;
12451;SDS011;72521;48.924;12.204;2023-09-30T22:01:58;9.18;;;5.55;;
12451;SDS011;72521;48.924;12.204;2023-09-30T22:07:07;8.20;;;5.70;;
12451;SDS011;72521;48.924;12.204;2023-09-30T22:12:13;12.07;;;7.22;;
12451;SDS011;72521;48.924;12.204;2023-09-30T22:17:18;10.57;;;6.97;;
12451;SDS011;72521;48.924;12.204;2023-09-30T22:22:24;12.50;;;5.80;;
12451;SDS011;72521;48.924;12.204;2023-09-30T22:27:35;9.23;;;5.85;;
12451;SDS011;72521;48.924;12.204;2023-09-30T22:32:41;9.93;;;5.35;;
12451;SDS011;72521;48.924;12.204;2023-09-30T22:37:47;9.93;;;5.72;;
12451;SDS011;72521;48.924;12.204;2023-09-30T22:42:52;9.63;;;5.95;;
12451;SDS011;72521;48.924;12.204;2023-09-30T22:47:58;8.43;;;6.00;;
12451;SDS011;72521;48.924;12.204;2023-09-30T22:53:04;9.35;;;5.78;;
12451;SDS011;72521;48.924;12.204;2023-09-30T22:58:09;10.38;;;6.53;;
12451;SDS011;72521;48.924;12.204;2023-09-30T23:03:13;8.02;;;5.65;;
12451;SDS011;72521;48.924;12.204;2023-09-30T23:08:19;9.23;;;5.80;;
12451;SDS011;72521;48.924;12.204;2023-09-30T23:13:23;9.13;;;6.00;;
12451;SDS011;72521;48.924;12.204;2023-09-30T23:18:28;8.77;;;5.72;;
12451;SDS011;72521;48.924;12.204;2023-09-30T23:23:34;10.07;;;5.50;;
12451;SDS011;72521;48.924;12.204;2023-09-30T23:28:39;10.35;;;6.03;;
12451;SDS011;72521;48.924;12.204;2023-09-30T23:33:43;8.95;;;6.40;;
12451;SDS011;72521;48.924;12.204;2023-09-30T23:38:51;10.80;;;6.35;;
12451;SDS011;72521;48.924;12.204;2023-09-30T23:43:56;9.65;;;6.43;;
12451;SDS011;72521;48.924;12.204;2023-09-30T23:49:00;12.77;;;7.50;;
12451;SDS011;72521;48.924;12.204;2023-09-30T23:54:09;8.93;;;6.50;;
12451;SDS011;72521;48.924;12.204;2023-09-30T23:59:16;11.95;;;6.82;;
